Time;durP1;ratioP1;P1;durP2;ratioP2;P2;SDS_P1;SDS_P2;PMS_P1;PMS_P2;Temp;Humidity;BMP_temperature;BMP_pressure;BME280_temperature;BME280_humidity;BME280_pressure;Samples;Min_cycle;Max_cycle;Signal;HPM_P1;HPM_P2
2023/09/24 00:01:16;;;;;;;8.27;1.95;;;;;;;9.66;100.00;102356.94;5075170;28;20457;-89
2023/09/24 00:03:43;;;;;;;7.35;1.95;;;;;;;9.61;100.00;102351.88;5075144;28;20032;-88
2023/09/24 00:06:10;;;;;;;8.20;2.42;;;;;;;9.60;100.00;102355.50;5075380;28;20024;-91
2023/09/24 00:08:37;;;;;;;5.57;2.10;;;;;;;9.57;100.00;102352.16;5076171;28;20028;-89
2023/09/24 00:11:05;;;;;;;5.28;2.10;;;;;;;9.53;100.00;102347.03;5074221;28;20028;-88
2023/09/24 00:13:35;;;;;;;10.02;2.08;;;;;;;9.56;100.00;102359.28;5075036;28;20125;-83
2023/09/24 00:16:06;;;;;;;6.47;2.28;;;;;;;9.56;100.00;102353.13;5075323;28;20025;-89
2023/09/24 00:18:35;;;;;;;6.18;1.85;;;;;;;9.56;100.00;102358.44;5074863;28;20425;-89
2023/09/24 00:21:01;;;;;;;5.80;2.00;;;;;;;9.56;100.00;102364.59;5074995;28;20162;-90
2023/09/24 00:23:28;;;;;;;7.18;1.90;;;;;;;9.53;100.00;102359.47;5073135;28;20112;-89
2023/09/24 00:25:55;;;;;;;6.43;2.25;;;;;;;9.51;100.00;102356.91;5073851;28;20063;-90
2023/09/24 00:28:21;;;;;;;8.80;2.20;;;;;;;9.50;100.00;102357.00;5074898;28;20052;-89
2023/09/24 00:30:48;;;;;;;7.95;1.80;;;;;;;9.43;100.00;102358.34;5074480;28;20035;-89
2023/09/24 00:33:13;;;;;;;7.82;2.03;;;;;;;9.42;100.00;102356.63;5073575;28;20037;-89
2023/09/24 00:35:38;;;;;;;9.35;2.15;;;;;;;9.38;100.00;102363.94;5074525;28;20410;-87
2023/09/24 00:38:04;;;;;;;6.97;1.90;;;;;;;9.36;100.00;102373.81;5072448;28;20477;-89
2023/09/24 00:40:29;;;;;;;4.72;1.98;;;;;;;9.32;100.00;102369.63;5074220;28;20073;-89
2023/09/24 00:42:55;;;;;;;7.25;2.13;;;;;;;9.33;100.00;102369.53;5073358;28;20075;-88
2023/09/24 00:45:25;;;;;;;10.05;1.90;;;;;;;9.33;100.00;102371.31;5074395;28;20036;-89
2023/09/24 00:47:52;;;;;;;8.27;2.03;;;;;;;9.31;100.00;102367.91;5057977;28;20060;-88
2023/09/24 00:50:18;;;;;;;3.40;1.80;;;;;;;9.27;100.00;102372.56;5075107;28;20033;-87
2023/09/24 00:52:45;;;;;;;8.20;2.88;;;;;;;9.24;100.00;102363.91;5075084;28;20035;-86
2023/09/24 00:55:13;;;;;;;7.82;2.20;;;;;;;9.21;100.00;102375.59;5075057;28;20139;-86
2023/09/24 00:57:39;;;;;;;15.95;3.67;;;;;;;9.15;100.00;102374.16;5074564;28;20421;-87
2023/09/24 01:00:11;;;;;;;7.18;2.00;;;;;;;9.11;100.00;102377.94;5074522;28;20091;-87
2023/09/24 01:02:36;;;;;;;;;;;;;;;9.11;100.00;102377.94;5075745;28;20025;-87
2023/09/24 01:05:01;;;;;;;4.90;1.92;;;;;;;9.10;100.00;102378.03;5072929;28;19924;-87
2023/09/24 01:07:28;;;;;;;9.55;2.60;;;;;;;9.08;100.00;102380.78;5074174;28;20028;-88
2023/09/24 01:09:53;;;;;;;5.57;2.55;;;;;;;9.05;100.00;102375.66;5074454;28;20082;-87
2023/09/24 01:12:21;;;;;;;8.18;2.40;;;;;;;9.06;100.00;102369.41;5072758;28;20029;-85
2023/09/24 01:14:46;;;;;;;6.90;2.10;;;;;;;9.06;100.00;102373.84;5074082;28;20025;-85
2023/09/24 01:17:12;;;;;;;6.25;2.20;;;;;;;9.05;100.00;102373.00;5073816;28;20369;-85
2023/09/24 01:19:37;;;;;;;7.68;2.80;;;;;;;9.07;100.00;102370.25;5073547;28;20035;-84
2023/09/24 01:22:03;;;;;;;8.02;2.20;;;;;;;9.08;100.00;102371.97;5072387;28;20444;-85
2023/09/24 01:24:30;;;;;;;8.60;2.40;;;;;;;9.03;100.00;102364.25;5070233;28;20025;-83
2023/09/24 01:26:56;;;;;;;8.93;2.45;;;;;;;9.06;100.00;102380.03;5070804;28;20028;-87
2023/09/24 01:29:23;;;;;;;7.45;2.30;;;;;;;9.07;100.00;102373.75;5070558;28;20060;-85
2023/09/24 01:31:49;;;;;;;11.90;2.30;;;;;;;9.08;100.00;102375.47;5070368;28;20131;-85
2023/09/24 01:34:15;;;;;;;9.23;2.42;;;;;;;9.03;100.00;102366.06;5069651;28;20043;-85
2023/09/24 01:36:43;;;;;;;7.28;2.13;;;;;;;9.02;100.00;102372.31;5070058;28;20388;-85
2023/09/24 01:39:08;;;;;;;8.65;2.95;;;;;;;8.99;100.00;102379.53;5071983;28;20086;-85
2023/09/24 01:41:34;;;;;;;5.97;2.30;;;;;;;8.97;100.00;102376.13;5071031;28;20481;-86
2023/09/24 01:43:59;;;;;;;6.25;2.33;;;;;;;8.97;100.00;102381.44;5071522;28;20483;-86
2023/09/24 01:46:25;;;;;;;11.80;2.58;;;;;;;8.97;100.00;102384.09;5071358;28;20028;-86
2023/09/24 01:48:54;;;;;;;9.15;2.35;;;;;;;8.98;100.00;102388.44;5053422;28;20040;-85
2023/09/24 01:51:20;;;;;;;7.30;2.20;;;;;;;8.99;100.00;102384.84;5069748;28;20032;-85
2023/09/24 01:53:46;;;;;;;13.13;2.40;;;;;;;8.97;100.00;102380.56;5071113;28;20093;-86
2023/09/24 01:56:13;;;;;;;9.73;2.13;;;;;;;8.94;100.00;102391.34;5071810;28;20112;-85
2023/09/24 01:58:38;;;;;;;10.52;1.90;;;;;;;8.91;100.00;102387.09;5037494;28;20044;-84
2023/09/24 02:01:04;;;;;;;6.30;2.30;;;;;;;8.88;100.00;102392.56;5071464;28;20033;-84
2023/09/24 02:03:29;;;;;;;5.90;2.30;;;;;;;8.86;100.00;102391.81;5053616;28;20125;-86
2023/09/24 02:05:55;;;;;;;6.60;2.10;;;;;;;8.90;100.00;102390.69;5070862;28;20040;-85
2023/09/24 02:08:20;;;;;;;8.13;2.70;;;;;;;8.94;100.00;102392.22;5071244;28;20032;-89
2023/09/24 02:10:47;;;;;;;8.55;3.08;;;;;;;8.95;100.00;102388.59;5053255;28;20040;-84
2023/09/24 02:13:14;;;;;;;8.98;2.90;;;;;;;8.94;100.00;102392.22;5070747;28;20044;-84
2023/09/24 02:15:40;;;;;;;10.07;2.67;;;;;;;8.95;100.00;102395.72;5071057;28;20028;-85
2023/09/24 02:18:06;;;;;;;7.32;2.67;;;;;;;8.93;100.00;102393.16;5071141;28;20055;-85
2023/09/24 02:20:32;;;;;;;8.85;2.65;;;;;;;8.93;100.00;102390.50;5070932;28;20460;-85
2023/09/24 02:23:02;;;;;;;5.50;2.17;;;;;;;8.91;100.00;102387.09;5071188;28;20037;-85
2023/09/24 02:25:29;;;;;;;11.23;2.60;;;;;;;8.90;100.00;102384.53;5071279;28;20035;-84
2023/09/24 02:27:56;;;;;;;12.02;2.30;;;;;;;8.93;100.00;102389.66;5071384;28;20105;-85
2023/09/24 02:30:23;;;;;;;9.48;2.80;;;;;;;8.92;100.00;102386.13;5071923;28;20032;-84
2023/09/24 02:32:49;;;;;;;9.27;2.60;;;;;;;8.91;100.00;102388.88;5071959;28;20063;-84
2023/09/24 02:35:15;;;;;;;11.25;2.40;;;;;;;8.90;100.00;102385.38;5070913;28;20104;-84
2023/09/24 02:37:45;;;;;;;9.30;2.58;;;;;;;8.90;100.00;102382.72;5053599;28;20032;-85
2023/09/24 02:40:15;;;;;;;15.73;3.20;;;;;;;8.90;100.00;102382.72;5071419;28;20040;-85
2023/09/24 02:42:43;;;;;;;8.00;2.30;;;;;;;8.95;100.00;102380.66;5071611;28;20057;-85
2023/09/24 02:45:10;;;;;;;8.57;2.55;;;;;;;8.95;100.00;102372.69;5070558;28;20032;-85
2023/09/24 02:47:36;;;;;;;6.38;2.22;;;;;;;8.94;100.00;102375.44;5070872;28;20040;-84
2023/09/24 02:50:12;;;;;;;8.50;2.53;;;;;;;8.90;100.00;102381.88;5069915;28;20428;-86
2023/09/24 02:52:39;;;;;;;9.75;2.63;;;;;;;8.90;100.00;102373.91;5069720;28;20124;-85
2023/09/24 02:55:06;;;;;;;5.45;2.70;;;;;;;8.89;100.00;102377.50;5071313;28;20036;-88
2023/09/24 02:57:32;;;;;;;4.95;2.35;;;;;;;8.90;100.00;102381.88;5071292;28;20048;-86
2023/09/24 02:59:58;;;;;;;9.00;2.42;;;;;;;8.92;100.00;102386.13;5071018;28;20123;-85
2023/09/24 03:02:23;;;;;;;12.80;2.58;;;;;;;8.92;100.00;102387.94;5071039;28;20020;-84
2023/09/24 03:04:50;;;;;;;6.95;2.22;;;;;;;8.94;100.00;102381.63;5071112;28;20533;-84
2023/09/24 03:07:15;;;;;;;4.70;2.28;;;;;;;8.96;100.00;102389.47;5069570;28;20048;-86
2023/09/24 03:09:41;;;;;;;11.45;2.58;;;;;;;8.94;100.00;102392.22;5053411;28;20025;-85
2023/09/24 03:12:07;;;;;;;7.07;2.10;;;;;;;8.92;100.00;102398.56;5069547;28;20048;-85
2023/09/24 03:14:32;;;;;;;8.73;2.72;;;;;;;8.87;100.00;102396.19;5069635;28;20033;-85
2023/09/24 03:16:59;;;;;;;6.78;2.30;;;;;;;8.80;100.00;102410.75;5069456;28;20396;-85
2023/09/24 03:19:24;;;;;;;7.80;2.50;;;;;;;8.77;100.00;102410.94;5069695;28;20028;-85
2023/09/24 03:21:50;;;;;;;14.35;2.80;;;;;;;8.74;100.00;102419.91;5069492;28;20458;-84
2023/09/24 03:24:16;;;;;;;6.72;2.28;;;;;;;8.69;100.00;102416.69;5070706;28;20032;-84
2023/09/24 03:26:42;;;;;;;11.77;2.35;;;;;;;8.69;100.00;102413.16;5071193;28;20028;-83
2023/09/24 03:29:07;;;;;;;12.07;2.70;;;;;;;8.68;100.00;102419.44;5069746;28;20162;-84
2023/09/24 03:31:33;;;;;;;8.13;2.65;;;;;;;8.67;100.00;102423.00;5071270;28;20040;-87
2023/09/24 03:33:59;;;;;;;7.45;2.30;;;;;;;8.64;100.00;102421.38;5069392;28;20449;-85
2023/09/24 03:36:24;;;;;;;9.05;2.50;;;;;;;8.61;100.00;102416.25;5069690;28;20384;-85
2023/09/24 03:38:50;;;;;;;6.75;2.88;;;;;;;8.59;100.00;102424.31;5068607;28;20033;-84
2023/09/24 03:41:15;;;;;;;8.43;2.75;;;;;;;8.57;100.00;102425.31;5070180;28;20094;-85
2023/09/24 03:43:42;;;;;;;8.82;2.58;;;;;;;8.53;100.00;102429.13;5070426;28;20055;-85
2023/09/24 03:46:09;;;;;;;8.27;2.90;;;;;;;8.52;100.00;102436.19;5068956;28;20136;-85
2023/09/24 03:48:35;;;;;;;6.28;2.90;;;;;;;8.51;100.00;102434.50;5052678;28;20407;-89
2023/09/24 03:51:00;;;;;;;11.27;3.17;;;;;;;8.50;100.00;102434.59;5070231;28;20028;-84
2023/09/24 03:53:26;;;;;;;14.52;3.28;;;;;;;8.50;100.00;102437.25;5070575;28;20028;-85
2023/09/24 03:55:53;;;;;;;9.05;2.95;;;;;;;8.49;100.00;102441.69;5070664;28;20029;-86
2023/09/24 03:58:19;;;;;;;10.50;3.30;;;;;;;8.51;100.00;102436.28;5072947;28;20032;-85
2023/09/24 04:00:44;;;;;;;10.35;3.42;;;;;;;8.56;100.00;102445.72;5074005;28;20040;-86
2023/09/24 04:03:10;;;;;;;8.20;3.30;;;;;;;8.58;100.00;102440.31;5074436;28;20029;-85
2023/09/24 04:05:35;;;;;;;11.25;3.47;;;;;;;8.58;100.00;102443.84;5074062;28;20115;-86
2023/09/24 04:08:03;;;;;;;9.35;3.20;;;;;;;8.57;100.00;102444.78;5074237;28;20028;-85
2023/09/24 04:10:29;;;;;;;11.27;3.33;;;;;;;8.58;100.00;102442.97;5073993;28;20024;-85
2023/09/24 04:12:59;;;;;;;8.23;3.47;;;;;;;8.60;100.00;102443.75;5072362;28;20500;-85
2023/09/24 04:15:29;;;;;;;9.23;2.90;;;;;;;8.63;100.00;102444.41;5073805;28;20357;-85
2023/09/24 04:17:56;;;;;;;9.60;4.07;;;;;;;8.69;100.00;102440.56;5072152;28;20036;-85
2023/09/24 04:20:22;;;;;;;11.02;4.20;;;;;;;8.74;100.00;102443.81;5073292;28;20024;-84
2023/09/24 04:22:48;;;;;;;13.73;4.60;;;;;;;8.74;100.00;102445.63;5071750;28;20025;-84
2023/09/24 04:25:16;;;;;;;12.35;4.00;;;;;;;8.71;100.00;102445.78;5055694;28;20127;-85
2023/09/24 04:27:45;;;;;;;8.48;3.47;;;;;;;8.68;100.00;102443.31;5073460;28;20097;-86
2023/09/24 04:30:15;;;;;;;9.88;3.33;;;;;;;8.61;100.00;102446.31;5071513;28;20058;-87
2023/09/24 04:32:44;;;;;;;11.18;4.72;;;;;;;8.56;100.00;102443.06;5073010;28;20032;-89
2023/09/24 04:35:12;;;;;;;11.75;4.80;;;;;;;8.53;100.00;102453.00;5072028;28;20484;-86
2023/09/24 04:37:39;;;;;;;15.13;4.55;;;;;;;8.46;100.00;102450.69;5054837;28;20100;-87
2023/09/24 04:40:10;;;;;;;8.68;4.20;;;;;;;8.43;100.00;102457.91;5073132;28;20040;-86
2023/09/24 04:42:37;;;;;;;7.10;3.67;;;;;;;8.35;100.00;102453.03;5073858;28;20137;-86
2023/09/24 04:45:06;;;;;;;10.45;4.18;;;;;;;8.33;100.00;102456.72;5072922;28;20461;-85
2023/09/24 04:47:31;;;;;;;11.60;4.88;;;;;;;8.30;100.00;102455.09;5071242;28;20487;-85
2023/09/24 04:49:57;;;;;;;11.90;4.40;;;;;;;8.28;100.00;102454.31;5072657;28;20032;-86
2023/09/24 04:52:23;;;;;;;13.65;4.80;;;;;;;8.26;100.00;102458.84;5072713;28;20047;-84
2023/09/24 04:54:48;;;;;;;11.57;4.72;;;;;;;8.26;100.00;102453.56;5071225;28;20130;-86
2023/09/24 04:57:14;;;;;;;14.32;4.90;;;;;;;8.25;100.00;102451.84;5072952;28;20060;-86
2023/09/24 04:59:39;;;;;;;14.55;4.45;;;;;;;8.25;100.00;102450.03;5072807;28;20433;-86
2023/09/24 05:02:05;;;;;;;12.15;4.65;;;;;;;8.23;100.00;102456.38;5072206;28;20024;-88
2023/09/24 05:04:32;;;;;;;12.18;4.47;;;;;;;8.19;100.00;102449.53;5071258;28;20132;-89
2023/09/24 05:06:57;;;;;;;11.77;4.45;;;;;;;8.15;100.00;102456.81;5072048;28;20024;-89
2023/09/24 05:09:25;;;;;;;11.20;4.90;;;;;;;8.10;100.00;102457.03;5072346;28;20322;-89
2023/09/24 05:11:51;;;;;;;12.43;5.50;;;;;;;8.13;100.00;102463.97;5072057;28;20129;-88
2023/09/24 05:14:17;;;;;;;14.55;5.53;;;;;;;8.12;100.00;102455.16;5070663;28;20475;-88
2023/09/24 05:16:43;;;;;;;22.65;6.13;;;;;;;8.12;100.00;102449.00;5072111;28;20425;-86
2023/09/24 05:19:11;;;;;;;11.57;5.13;;;;;;;8.15;100.00;102448.84;5072102;28;20024;-86
2023/09/24 05:21:36;;;;;;;11.90;5.72;;;;;;;8.17;100.00;102454.06;5070533;28;20043;-87
2023/09/24 05:24:03;;;;;;;16.98;6.07;;;;;;;8.14;100.00;102456.88;5071896;28;20353;-87
2023/09/24 05:26:29;;;;;;;16.15;5.93;;;;;;;8.17;100.00;102464.66;5070141;28;20433;-86
2023/09/24 05:28:54;;;;;;;15.70;6.40;;;;;;;8.20;100.00;102460.03;5070073;28;20052;-86
2023/09/24 05:31:23;;;;;;;18.60;6.03;;;;;;;8.22;100.00;102467.91;5070445;28;20132;-86
2023/09/24 05:33:48;;;;;;;23.73;7.30;;;;;;;8.21;100.00;102471.50;5070016;28;20040;-85
2023/09/24 05:36:14;;;;;;;16.55;6.63;;;;;;;8.20;100.00;102469.81;5053280;28;20021;-89
2023/09/24 05:38:39;;;;;;;15.52;7.10;;;;;;;8.20;100.00;102470.66;5071126;28;20033;-84
2023/09/24 05:41:05;;;;;;;19.35;7.72;;;;;;;8.22;100.00;102478.53;5071480;28;20067;-87
2023/09/24 05:43:31;;;;;;;19.92;7.47;;;;;;;8.24;100.00;102481.94;5069785;28;20039;-86
2023/09/24 05:46:01;;;;;;;17.70;7.18;;;;;;;8.23;100.00;102478.44;5053249;28;20032;-87
2023/09/24 05:48:26;;;;;;;16.33;7.93;;;;;;;8.25;100.00;102484.50;5071359;28;20025;-84
2023/09/24 05:50:54;;;;;;;17.95;7.55;;;;;;;8.29;100.00;102486.06;5069810;28;20091;-91
2023/09/24 05:53:20;;;;;;;13.95;6.68;;;;;;;8.29;100.00;102479.91;5071356;28;20299;-86
2023/09/24 05:55:53;;;;;;;21.17;7.50;;;;;;;8.32;100.00;102481.53;5069714;28;20417;-85
2023/09/24 05:58:19;;;;;;;18.38;7.90;;;;;;;8.34;100.00;102485.78;5069924;28;20039;-84
2023/09/24 06:00:45;;;;;;;20.08;9.05;;;;;;;8.36;100.00;102485.72;5070550;28;20352;-85
2023/09/24 06:03:13;;;;;;;23.90;8.70;;;;;;;8.40;100.00;102498.72;5071028;28;20032;-86
2023/09/24 06:05:38;;;;;;;16.27;7.65;;;;;;;8.42;100.00;102499.50;5070960;28;20044;-83
2023/09/24 06:08:05;;;;;;;18.33;7.25;;;;;;;8.43;100.00;102503.88;5052846;28;20039;-85
2023/09/24 06:10:31;;;;;;;21.60;8.02;;;;;;;8.45;100.00;102494.06;5070870;28;20056;-84
2023/09/24 06:12:57;;;;;;;20.42;7.95;;;;;;;8.51;100.00;102494.66;5070860;28;20079;-83
2023/09/24 06:15:22;;;;;;;23.63;8.10;;;;;;;8.50;100.00;102495.63;5069892;28;20070;-85
2023/09/24 06:17:50;;;;;;;20.52;7.82;;;;;;;8.53;100.00;102498.09;5071178;28;20063;-85
2023/09/24 06:20:16;;;;;;;14.98;7.57;;;;;;;8.56;100.00;102505.88;5070556;28;20135;-86
2023/09/24 06:22:50;;;;;;;17.88;7.60;;;;;;;8.54;100.00;102502.44;5070748;28;20468;-85
2023/09/24 06:25:15;;;;;;;20.13;7.60;;;;;;;8.57;100.00;102504.91;5070627;28;20459;-86
2023/09/24 06:27:40;;;;;;;22.55;8.50;;;;;;;8.55;100.00;102505.00;5070769;28;20123;-87
2023/09/24 06:30:08;;;;;;;21.33;8.43;;;;;;;8.56;100.00;102511.19;5070692;28;20119;-87
2023/09/24 06:32:33;;;;;;;16.98;7.75;;;;;;;8.58;100.00;102510.16;5070645;28;20033;-85
2023/09/24 06:35:02;;;;;;;20.30;8.63;;;;;;;8.60;100.00;102516.25;5052285;28;20043;-85
2023/09/24 06:37:29;;;;;;;30.35;9.07;;;;;;;8.64;100.00;102511.59;5069052;28;20440;-87
2023/09/24 06:39:54;;;;;;;15.80;8.18;;;;;;;8.71;100.00;102514.78;5052156;28;20055;-87
2023/09/24 06:42:20;;;;;;;25.92;8.43;;;;;;;8.75;100.00;102519.84;5068429;28;20052;-86
2023/09/24 06:44:45;;;;;;;24.58;7.93;;;;;;;8.79;100.00;102526.69;5068909;28;20115;-86
2023/09/24 06:47:10;;;;;;;17.58;8.32;;;;;;;8.82;100.00;102526.50;5070813;28;20137;-86
2023/09/24 06:49:37;;;;;;;24.38;8.02;;;;;;;8.86;100.00;102526.34;5051917;28;20456;-86
2023/09/24 06:52:02;;;;;;;20.48;7.68;;;;;;;8.90;100.00;102533.19;5068970;28;20036;-87
2023/09/24 06:54:28;;;;;;;16.08;7.40;;;;;;;8.93;100.00;102533.03;5070540;28;20144;-87
2023/09/24 06:56:58;;;;;;;15.23;7.18;;;;;;;8.99;100.00;102538.81;5071421;28;20437;-85
2023/09/24 06:59:24;;;;;;;16.83;7.22;;;;;;;9.04;100.00;102541.22;5071884;28;20084;-84
2023/09/24 07:01:50;;;;;;;19.80;7.38;;;;;;;9.12;100.00;102543.44;5071509;28;20056;-86
2023/09/24 07:04:15;;;;;;;16.98;6.35;;;;;;;9.19;100.00;102542.13;5070548;28;20035;-85
2023/09/24 07:06:40;;;;;;;13.65;6.50;;;;;;;9.24;100.00;102541.88;5068521;28;20032;-86
2023/09/24 07:09:07;;;;;;;13.90;6.38;;;;;;;9.29;100.00;102547.78;5070538;28;20033;-85
2023/09/24 07:11:36;;;;;;;16.50;6.57;;;;;;;9.34;100.00;102554.53;5070984;28;20083;-87
2023/09/24 07:14:04;;;;;;;17.92;6.20;;;;;;;9.40;100.00;102548.00;5068854;28;20522;-83
2023/09/24 07:16:29;;;;;;;12.65;5.78;;;;;;;9.47;100.00;102559.13;5070792;28;20111;-84
2023/09/24 07:18:56;;;;;;;14.65;5.60;;;;;;;9.53;100.00;102558.78;5069173;28;20120;-86
2023/09/24 07:21:25;;;;;;;11.60;5.90;;;;;;;9.62;100.00;102563.53;5070471;28;20029;-84
2023/09/24 07:23:52;;;;;;;13.23;4.50;;;;;;;9.70;100.00;102563.97;5070403;28;20032;-84
2023/09/24 07:26:18;;;;;;;12.93;5.07;;;;;;;9.76;100.00;102562.72;5070485;28;20044;-86
2023/09/24 07:28:44;;;;;;;8.80;4.22;;;;;;;9.81;100.00;102554.50;5070140;28;20087;-86
2023/09/24 07:31:14;;;;;;;10.57;4.00;;;;;;;9.89;100.00;102547.72;5070561;28;20047;-82
2023/09/24 07:33:42;;;;;;;10.90;4.15;;;;;;;9.99;100.00;102557.84;5072559;28;20076;-81
2023/09/24 07:36:08;;;;;;;6.50;3.55;;;;;;;10.08;100.00;102554.59;5073269;28;20096;-85
2023/09/24 07:38:33;;;;;;;11.10;4.00;;;;;;;10.18;100.00;102553.09;5074291;28;20036;-84
2023/09/24 07:40:59;;;;;;;9.75;3.65;;;;;;;10.27;100.00;102551.69;5072307;28;20114;-80
2023/09/24 07:43:25;;;;;;;12.57;3.60;;;;;;;10.38;100.00;102559.84;5072949;28;20406;-80
2023/09/24 07:45:50;;;;;;;8.93;3.20;;;;;;;10.50;100.00;102558.22;5072457;28;20048;-81
2023/09/24 07:48:16;;;;;;;12.10;3.75;;;;;;;10.62;100.00;102559.28;5071876;28;20036;-83
2023/09/24 07:50:50;;;;;;;10.52;3.20;;;;;;;10.73;100.00;102567.44;5072106;28;20033;-82
2023/09/24 07:53:15;;;;;;;9.40;2.88;;;;;;;10.86;100.00;102569.31;5073274;28;20097;-82
2023/09/24 07:55:40;;;;;;;8.68;3.20;;;;;;;10.99;100.00;102556.91;5073885;28;20119;-86
2023/09/24 07:58:06;;;;;;;7.75;2.65;;;;;;;11.12;100.00;102562.28;5071955;28;20045;-85
2023/09/24 08:00:31;;;;;;;7.10;2.88;;;;;;;11.40;100.00;102560.47;5071872;28;20028;-84
2023/09/24 08:02:57;;;;;;;11.40;2.83;;;;;;;11.72;100.00;102560.09;5073552;28;20075;-84
2023/09/24 08:05:22;;;;;;;5.65;2.45;;;;;;;12.04;100.00;102559.72;5071837;28;20092;-83
2023/09/24 08:07:47;;;;;;;9.20;2.15;;;;;;;12.32;100.00;102550.66;5055250;28;20089;-84
2023/09/24 08:10:13;;;;;;;9.15;3.15;;;;;;;12.63;100.00;102549.31;5072970;28;20118;-84
2023/09/24 08:12:39;;;;;;;10.20;2.78;;;;;;;12.86;100.00;102539.59;5055199;28;20037;-82
2023/09/24 08:15:05;;;;;;;10.77;2.53;;;;;;;13.05;100.00;102538.25;5071546;28;20123;-82
2023/09/24 08:17:31;;;;;;;6.47;2.00;;;;;;;13.23;100.00;102536.88;5072915;28;20039;-84
2023/09/24 08:19:56;;;;;;;8.48;2.40;;;;;;;13.54;100.00;102541.75;5072984;28;20082;-82
2023/09/24 08:22:23;;;;;;;4.47;2.17;;;;;;;13.88;100.00;102536.47;5071405;28;20341;-80
2023/09/24 08:24:48;;;;;;;5.28;2.22;;;;;;;14.25;100.00;102541.63;5072638;28;20403;-79
2023/09/24 08:27:14;;;;;;;7.90;2.20;;;;;;;14.80;100.00;102547.91;5072967;28;20043;-83
2023/09/24 08:29:39;;;;;;;6.18;2.10;;;;;;;15.20;100.00;102553.63;5054611;28;20112;-81
2023/09/24 08:32:05;;;;;;;11.25;6.63;;;;;;;15.78;100.00;102546.06;5072666;28;20064;-81
2023/09/24 08:34:30;;;;;;;11.32;2.45;;;;;;;15.80;100.00;102540.56;5071300;28;20054;-81
2023/09/24 08:36:55;;;;;;;5.85;2.08;;;;;;;15.62;100.00;102541.13;5072740;28;20107;-82
2023/09/24 08:39:21;;;;;;;5.68;2.00;;;;;;;15.97;100.00;102542.66;5072911;28;20041;-79
2023/09/24 08:41:46;;;;;;;4.70;2.15;;;;;;;15.90;100.00;102548.66;5072058;28;20471;-80
2023/09/24 08:44:17;;;;;;;4.45;1.95;;;;;;;16.19;100.00;102541.59;5072840;28;20035;-84
2023/09/24 08:46:47;;;;;;;7.18;2.40;;;;;;;16.55;100.00;102541.16;5073327;28;20033;-82
2023/09/24 08:49:13;;;;;;;7.97;2.17;;;;;;;17.08;100.00;102538.19;5071758;28;20043;-82
2023/09/24 08:51:40;;;;;;;8.20;2.40;;;;;;;17.67;100.00;102537.28;5073092;28;20112;-80
2023/09/24 08:54:06;;;;;;;5.32;2.55;;;;;;;18.14;100.00;102537.34;5073568;28;20029;-81
2023/09/24 08:56:34;;;;;;;4.32;2.08;;;;;;;18.59;100.00;102533.00;5074434;28;20484;-84
2023/09/24 08:59:00;;;;;;;7.15;2.10;;;;;;;18.90;100.00;102528.16;5075269;28;20096;-80
2023/09/24 09:01:26;;;;;;;4.32;1.92;;;;;;;18.64;100.00;102520.75;5075815;28;20063;-86
2023/09/24 09:03:51;;;;;;;9.30;2.03;;;;;;;18.79;100.00;102522.94;5073079;28;20032;-82
2023/09/24 09:06:31;;;;;;;9.80;2.45;;;;;;;19.51;100.00;102533.72;5055099;28;20059;-80
2023/09/24 09:08:59;;;;;;;8.27;2.17;;;;;;;19.65;100.00;102529.63;5071268;28;20037;-82
2023/09/24 09:11:42;;;;;;;9.23;2.72;;;;;;;19.09;100.00;102524.44;5070910;28;20033;-82
2023/09/24 09:14:09;;;;;;;6.07;1.88;;;;;;;19.40;100.00;102524.03;5071357;28;20056;-85
2023/09/24 09:16:57;;;;;;;5.38;2.10;;;;;;;19.06;100.00;102524.75;5072067;28;20028;-78
2023/09/24 09:19:22;;;;;;;5.85;1.92;;;;;;;19.34;100.00;102532.75;5072494;28;20055;-82
2023/09/24 09:21:48;;;;;;;5.28;1.83;;;;;;;19.38;100.00;102529.56;5071007;28;20033;-76
2023/09/24 09:24:23;;;;;;;8.73;2.15;;;;;;;19.83;100.00;102524.19;5072053;28;20514;-75
2023/09/24 09:26:54;;;;;;;7.45;1.90;;;;;;;19.93;100.00;102519.53;5072003;28;20039;-72
2023/09/24 09:29:23;;;;;;;10.68;2.25;;;;;;;20.63;100.00;102521.16;5070698;28;20086;-74
2023/09/24 09:31:50;;;;;;;6.20;2.00;;;;;;;21.37;100.00;102521.25;5071880;28;20055;-73
2023/09/24 09:34:15;;;;;;;9.02;2.15;;;;;;;21.97;100.00;102517.28;5071743;28;20081;-72
2023/09/24 09:36:40;;;;;;;4.93;1.50;;;;;;;21.98;95.36;102518.13;5071823;28;20036;-73
2023/09/24 09:39:06;;;;;;;4.28;1.60;;;;;;;22.17;82.49;102506.03;5070257;28;20306;-73
2023/09/24 09:41:33;;;;;;;3.47;1.50;;;;;;;22.64;82.93;102507.84;5070165;28;20086;-73
2023/09/24 09:44:07;;;;;;;7.63;1.80;;;;;;;22.49;75.85;102510.47;5071832;28;20040;-76
2023/09/24 09:46:38;;;;;;;5.05;1.77;;;;;;;22.17;84.82;102504.16;5071557;28;20033;-75
2023/09/24 09:49:09;;;;;;;3.85;1.60;;;;;;;22.43;76.49;102513.91;5071234;28;20037;-73
2023/09/24 09:51:40;;;;;;;;;;;;;;;22.05;88.70;102497.44;5071888;28;20043;-73
2023/09/24 09:54:06;;;;;;;4.15;1.75;;;;;;;22.45;75.18;102509.16;5071576;28;20379;-74
2023/09/24 09:56:35;;;;;;;5.57;1.65;;;;;;;22.75;73.40;102500.31;5071041;28;20035;-74
2023/09/24 09:59:04;;;;;;;7.18;1.92;;;;;;;22.67;73.14;102493.09;5071141;28;20103;-75
2023/09/24 10:01:30;;;;;;;3.22;1.73;;;;;;;22.84;76.01;102499.22;5071177;28;20385;-74
2023/09/24 10:03:56;;;;;;;4.68;1.70;;;;;;;22.74;73.86;102493.22;5071538;28;20040;-73
2023/09/24 10:06:22;;;;;;;3.22;1.67;;;;;;;22.24;74.15;102487.19;5069838;28;20028;-73
2023/09/24 10:08:49;;;;;;;6.80;2.55;;;;;;;22.28;84.29;102488.53;5071387;28;20045;-73
2023/09/24 10:11:43;;;;;;;8.10;1.98;;;;;;;21.91;83.76;102485.44;5071139;28;20024;-73
2023/09/24 10:14:09;;;;;;;5.55;1.73;;;;;;;21.73;82.72;102482.13;5056195;28;20131;-72
2023/09/24 10:16:37;;;;;;;5.60;1.98;;;;;;;21.37;85.53;102482.50;5071289;28;20111;-72
2023/09/24 10:19:11;;;;;;;5.05;1.67;;;;;;;20.85;85.70;102491.81;5071179;28;20044;-76
2023/09/24 10:21:40;;;;;;;4.72;1.63;;;;;;;20.30;98.34;102490.47;5069668;28;20111;-71
2023/09/24 10:24:11;;;;;;;3.78;1.55;;;;;;;20.24;97.03;102479.31;5069403;28;20119;-72
2023/09/24 10:26:49;;;;;;;4.20;1.75;;;;;;;20.12;98.90;102482.47;5071060;28;20035;-72
2023/09/24 10:29:19;;;;;;;5.03;1.55;;;;;;;19.68;100.00;102486.09;5070622;28;20020;-72
2023/09/24 10:32:23;;;;;;;5.55;1.75;;;;;;;19.28;100.00;102479.41;5069552;28;20409;-72
2023/09/24 10:34:54;;;;;;;7.45;2.90;;;;;;;18.88;100.00;102478.88;5028356;28;20456;-71
2023/09/24 10:37:33;;;;;;;3.60;1.60;;;;;;;18.89;100.00;102482.47;5012091;28;20240;-72
2023/09/24 10:40:04;;;;;;;2.30;1.42;;;;;;;19.04;100.00;102483.59;5053356;28;20037;-76
2023/09/24 10:42:39;;;;;;;11.60;1.77;;;;;;;19.20;100.00;102475.63;5071095;28;20413;-72
2023/09/24 10:45:07;;;;;;;4.32;1.80;;;;;;;18.90;100.00;102474.22;5070690;28;20040;-72
2023/09/24 10:47:36;;;;;;;6.65;1.67;;;;;;;18.58;100.00;102467.44;5069147;28;20029;-76
2023/09/24 10:50:03;;;;;;;5.78;1.60;;;;;;;18.40;100.00;102467.41;5070391;28;20058;-75
2023/09/24 10:52:45;;;;;;;4.63;2.10;;;;;;;18.38;100.00;102464.03;5069416;28;20048;-74
2023/09/24 10:55:10;;;;;;;6.55;1.75;;;;;;;18.23;100.00;102460.19;5070159;28;20029;-74
2023/09/24 10:57:37;;;;;;;7.60;1.52;;;;;;;18.13;100.00;102473.69;5069462;28;20025;-72
2023/09/24 11:00:03;;;;;;;3.60;1.42;;;;;;;18.01;100.00;102458.72;5070393;28;20052;-72
2023/09/24 11:02:28;;;;;;;5.13;1.90;;;;;;;18.02;100.00;102465.78;5052375;28;20112;-73
2023/09/24 11:04:53;;;;;;;5.18;1.73;;;;;;;17.98;100.00;102465.25;5070014;28;20448;-73
2023/09/24 11:07:19;;;;;;;4.70;1.50;;;;;;;17.63;100.00;102459.53;5071698;28;20072;-74
2023/09/24 11:09:51;;;;;;;4.85;1.75;;;;;;;17.42;100.00;102467.81;5073026;28;20468;-71
2023/09/24 11:12:16;;;;;;;6.70;1.90;;;;;;;17.30;100.00;102470.78;5074273;28;20032;-72
2023/09/24 11:14:52;;;;;;;4.55;1.73;;;;;;;17.26;100.00;102464.88;5074228;28;20041;-74
2023/09/24 11:17:18;;;;;;;4.40;1.73;;;;;;;17.35;100.00;102469.38;5074511;28;20464;-71
2023/09/24 11:19:49;;;;;;;4.07;1.85;;;;;;;17.41;100.00;102460.72;5072903;28;20441;-71